Aviation Digital Data Service (ADDS)

Output produced by METARs form (1351 UTC 23 April 2017)
found at http://aviationweather.gov/adds/metars/
 
METAR text: KHDN 231335Z AUTO 11011KT 10SM CLR 02/M06 A3006 RMK AO1
Conditions at: KHDN (HAYDEN/YAMPA , CO, US) observed 1335 UTC 23 April 2017
Temperature: 2.0°C (36°F)
Dewpoint: -6.0°C (21°F) [RH = 55%]
Pressure (altimeter): 30.06 inches Hg (1018.0 mb)
Winds: from the ESE (110 degrees) at 13 MPH (11 knots; 5.7 m/s)
Visibility: 10 or more miles (16+ km)
Ceiling: at least 12,000 feet AGL
Clouds: sky clear below 12,000 feet AGL
Weather: automated observation with no human augmentation;
there may or may not be significant weather present at this time